map of LOZ home
LOZ - Airport
Location
City:  London, Kentucky, United States
Name:London-Corbin Airport-Magee Field
ICAO:KLOZ
IATA:LOZ
FAA LID:LOZ

Details
Type:Airport (Airfield)
Use:Public/Civil
Latitude:3705'13"N (37.086889)
Longitude:8404'39"W (-84.077388)
Datum:WGS 1984
Elevation:1212 ft (369 m)
Variation:5.86W (WMM2015v2 magnetic declination)
-0.04 annual change
Runways:1
Longest:5751 × 150 ft (1753 × 45.5 m), paved

Time
Time Zone:UTC-5 (DST-4)
Local Time:

Weather
METAR:KLOZ 041353Z AUTO 00000KT 10SM CLR 06/04 A3003 RMK AO2 SLP169 T00560044
TAF:KLOZ 041123Z 0412/0512 00000KT P6SM SKC
FM041300 17005KT P6SM SCT110
FM041700 19009KT P6SM BKN150
FM042300 19010KT P6SM VCSH OVC040
FM050000 20009KT P6SM -RA OVC030

Related Locations
Nearby:
Farthest:YAUG: 11347 mi / 18261 km
Augusta [Augusta Airport], WA, AU

Find:

   beyond  
but within

Other Information
Maps:
NOTAMs:
Links:
Sources:

  
  • flag of United States
  • flag of Kentucky
  

Sectional Chart

Flight Planning
at skyvector.com

Satellite Image

Google Maps Satellite view

 

Copyright © 2004-2019 Karl L. Swartz. All rights reserved.
The Great Circle Mapper name and logo are trademarks of the Great Circle Mapper.
All other trademarks mentioned herein belong to their respective owners.
Please see credits for attibutions and further copyright information.

  Follow gcmap on Facebook Follow gcmap on Twitter GCmap on LinkedIn

hCard Microformat

Geo Microformat